Главная страница
METAR-TAF:

METAR-TAF

Аэропорты :

Радом, Польша

широта: 51-23-21N, долгота: 21-12-49E, высота над уровнем моря: 186 м

Текущие метеонаблюдения

Эта сводка был подготовлена 10 часа и 3 минут назад, в 11:00 UTC
Ветер 11 Узел от юго-западный, изменяющийся между южный и западный-юго-западный
Температура 30°C
Влажность 43%
Давление 1015 hPa
Видимость 10 км и более
Нет облачности ниже 1500 м, и нет кучево-дождевой облачности

METAR: EPRA 201100Z 22011KT 190V250 CAVOK 30/16 Q1015

Время: 23:03 (21:03 UTC)

Прогноз

Эта сводка был подготовлена 1 час и 3 минут назад, в 20:00 UTC
Прогноз действительный с 20-го 21 UTC до 21-го 06 UTC
Ветер 10 Узел от западно-северо-западный
Видимость 10 км и более
Нет облачности ниже 1500 м, и нет кучево-дождевой облачности

TAF: EPRA 202000Z 2021/2106 30010KT CAVOK

Метеонаблюдения и прогнозы для более 4000 аэропортов (сводки METAR и TAF).

Имеющиеся станции представлены на карте желтыми и красными точками.

Чтобы увидеть название станции, наведите на нее мышь.

Затем щелкните, чтобы увидеть метеонаблюдения и метеопрогнозы.

Управление картой: чтобы увеличить масштаб, щелкните зеленые кнопки с черным крестиком; чтобы уменьшить масштаб, щелкните зеленую кнопку с тире; для просмотра соседних карт щелкайте зеленые стрелки.


METAR-TAF: